sensor_id;sensor_type;location;lat;lon;timestamp;temperature;humidity
4209;DHT22;36320;48.860;2.380;2022-08-19T00:00:33;23.80;66.90
4209;DHT22;36320;48.860;2.380;2022-08-19T00:02:59;23.70;66.70
4209;DHT22;36320;48.860;2.380;2022-08-19T00:05:25;23.80;66.80
4209;DHT22;36320;48.860;2.380;2022-08-19T00:07:50;23.80;66.80
4209;DHT22;36320;48.860;2.380;2022-08-19T00:10:17;23.80;66.90
4209;DHT22;36320;48.860;2.380;2022-08-19T00:12:43;23.70;66.60
4209;DHT22;36320;48.860;2.380;2022-08-19T00:15:12;23.70;67.70
4209;DHT22;36320;48.860;2.380;2022-08-19T00:17:40;23.70;66.70
4209;DHT22;36320;48.860;2.380;2022-08-19T00:20:06;23.60;66.80
4209;DHT22;36320;48.860;2.380;2022-08-19T00:22:33;23.50;67.30
4209;DHT22;36320;48.860;2.380;2022-08-19T00:24:58;23.30;67.60
4209;DHT22;36320;48.860;2.380;2022-08-19T00:27:24;23.30;67.80
4209;DHT22;36320;48.860;2.380;2022-08-19T00:29:50;23.20;68.00
4209;DHT22;36320;48.860;2.380;2022-08-19T00:32:16;23.20;68.20
4209;DHT22;36320;48.860;2.380;2022-08-19T00:34:42;23.30;68.00
4209;DHT22;36320;48.860;2.380;2022-08-19T00:37:09;23.30;68.00
4209;DHT22;36320;48.860;2.380;2022-08-19T00:39:35;23.30;67.90
4209;DHT22;36320;48.860;2.380;2022-08-19T00:42:01;23.40;67.80
4209;DHT22;36320;48.860;2.380;2022-08-19T00:44:28;23.40;67.70
4209;DHT22;36320;48.860;2.380;2022-08-19T00:46:56;23.10;67.80
4209;DHT22;36320;48.860;2.380;2022-08-19T00:49:34;23.00;68.30
4209;DHT22;36320;48.860;2.380;2022-08-19T00:52:05;22.80;68.60
4209;DHT22;36320;48.860;2.380;2022-08-19T00:54:32;22.80;68.80
4209;DHT22;36320;48.860;2.380;2022-08-19T00:56:59;22.80;69.00
4209;DHT22;36320;48.860;2.380;2022-08-19T00:59:28;22.90;68.80
4209;DHT22;36320;48.860;2.380;2022-08-19T01:01:53;22.80;68.70
4209;DHT22;36320;48.860;2.380;2022-08-19T01:04:21;22.80;69.60
4209;DHT22;36320;48.860;2.380;2022-08-19T01:06:47;22.90;68.60
4209;DHT22;36320;48.860;2.380;2022-08-19T01:09:13;22.90;68.40
4209;DHT22;36320;48.860;2.380;2022-08-19T01:11:41;23.00;68.40
4209;DHT22;36320;48.860;2.380;2022-08-19T01:14:09;23.10;68.30
4209;DHT22;36320;48.860;2.380;2022-08-19T01:16:35;23.10;68.00
4209;DHT22;36320;48.860;2.380;2022-08-19T01:19:08;23.10;68.00
4209;DHT22;36320;48.860;2.380;2022-08-19T01:21:43;23.00;68.10
4209;DHT22;36320;48.860;2.380;2022-08-19T01:24:11;22.90;68.30
4209;DHT22;36320;48.860;2.380;2022-08-19T01:26:42;22.90;68.30
4209;DHT22;36320;48.860;2.380;2022-08-19T01:29:09;23.00;68.20
4209;DHT22;36320;48.860;2.380;2022-08-19T01:31:35;22.90;68.10
4209;DHT22;36320;48.860;2.380;2022-08-19T01:34:03;22.90;68.30
4209;DHT22;36320;48.860;2.380;2022-08-19T01:36:42;22.90;68.40
4209;DHT22;36320;48.860;2.380;2022-08-19T01:39:12;22.70;68.40
4209;DHT22;36320;48.860;2.380;2022-08-19T01:41:39;22.80;68.60
4209;DHT22;36320;48.860;2.380;2022-08-19T01:44:07;22.60;68.90
4209;DHT22;36320;48.860;2.380;2022-08-19T01:46:33;22.60;69.10
4209;DHT22;36320;48.860;2.380;2022-08-19T01:48:59;22.50;69.10
4209;DHT22;36320;48.860;2.380;2022-08-19T01:51:26;22.40;69.30
4209;DHT22;36320;48.860;2.380;2022-08-19T01:53:52;22.40;70.30
4209;DHT22;36320;48.860;2.380;2022-08-19T01:56:18;22.40;69.70
4209;DHT22;36320;48.860;2.380;2022-08-19T01:58:51;22.40;69.90
4209;DHT22;36320;48.860;2.380;2022-08-19T02:01:18;22.40;69.90
4209;DHT22;36320;48.860;2.380;2022-08-19T02:03:44;22.40;69.50
4209;DHT22;36320;48.860;2.380;2022-08-19T02:06:11;22.60;69.40
4209;DHT22;36320;48.860;2.380;2022-08-19T02:08:38;22.50;69.70
4209;DHT22;36320;48.860;2.380;2022-08-19T02:11:04;22.70;69.40
4209;DHT22;36320;48.860;2.380;2022-08-19T02:13:31;22.70;69.40
4209;DHT22;36320;48.860;2.380;2022-08-19T02:15:56;22.50;69.60
4209;DHT22;36320;48.860;2.380;2022-08-19T02:18:23;22.60;69.90
4209;DHT22;36320;48.860;2.380;2022-08-19T02:20:49;22.60;69.60
4209;DHT22;36320;48.860;2.380;2022-08-19T02:23:16;22.50;70.00
4209;DHT22;36320;48.860;2.380;2022-08-19T02:25:44;22.30;70.50
4209;DHT22;36320;48.860;2.380;2022-08-19T02:28:10;22.30;70.70
4209;DHT22;36320;48.860;2.380;2022-08-19T02:30:37;22.30;70.90
4209;DHT22;36320;48.860;2.380;2022-08-19T02:33:04;22.20;71.10
4209;DHT22;36320;48.860;2.380;2022-08-19T02:35:30;22.30;71.30
4209;DHT22;36320;48.860;2.380;2022-08-19T02:37:56;22.20;71.20
4209;DHT22;36320;48.860;2.380;2022-08-19T02:40:51;22.30;71.20
4209;DHT22;36320;48.860;2.380;2022-08-19T02:43:18;22.30;71.20
4209;DHT22;36320;48.860;2.380;2022-08-19T02:45:46;22.30;71.40
4209;DHT22;36320;48.860;2.380;2022-08-19T02:48:21;22.30;71.60
4209;DHT22;36320;48.860;2.380;2022-08-19T02:50:48;22.30;71.70
4209;DHT22;36320;48.860;2.380;2022-08-19T02:53:18;22.30;72.00
4209;DHT22;36320;48.860;2.380;2022-08-19T02:55:46;22.40;71.80
4209;DHT22;36320;48.860;2.380;2022-08-19T02:58:13;22.50;71.60
4209;DHT22;36320;48.860;2.380;2022-08-19T03:00:50;22.50;71.30
4209;DHT22;36320;48.860;2.380;2022-08-19T03:03:17;22.50;71.60
4209;DHT22;36320;48.860;2.380;2022-08-19T03:05:44;22.40;71.50
4209;DHT22;36320;48.860;2.380;2022-08-19T03:08:11;22.30;71.70
4209;DHT22;36320;48.860;2.380;2022-08-19T03:10:45;22.40;71.80
4209;DHT22;36320;48.860;2.380;2022-08-19T03:13:16;22.40;72.00
4209;DHT22;36320;48.860;2.380;2022-08-19T03:15:44;22.30;72.30
4209;DHT22;36320;48.860;2.380;2022-08-19T03:18:10;22.30;73.20
4209;DHT22;36320;48.860;2.380;2022-08-19T03:20:49;22.20;72.70
4209;DHT22;36320;48.860;2.380;2022-08-19T03:23:16;22.20;72.90
4209;DHT22;36320;48.860;2.380;2022-08-19T03:25:46;22.30;73.10
4209;DHT22;36320;48.860;2.380;2022-08-19T03:28:13;22.50;72.80
4209;DHT22;36320;48.860;2.380;2022-08-19T03:30:40;22.60;72.60
4209;DHT22;36320;48.860;2.380;2022-08-19T03:33:09;22.60;72.50
4209;DHT22;36320;48.860;2.380;2022-08-19T03:35:36;22.60;72.60
4209;DHT22;36320;48.860;2.380;2022-08-19T03:38:06;22.60;72.50
4209;DHT22;36320;48.860;2.380;2022-08-19T03:40:32;22.60;73.10
4209;DHT22;36320;48.860;2.380;2022-08-19T03:43:01;22.60;72.50
4209;DHT22;36320;48.860;2.380;2022-08-19T03:45:27;22.60;72.40
4209;DHT22;36320;48.860;2.380;2022-08-19T03:47:53;22.60;72.50
4209;DHT22;36320;48.860;2.380;2022-08-19T03:50:19;22.60;72.60
4209;DHT22;36320;48.860;2.380;2022-08-19T03:52:49;22.50;72.90
4209;DHT22;36320;48.860;2.380;2022-08-19T03:55:16;22.40;74.00
4209;DHT22;36320;48.860;2.380;2022-08-19T03:57:42;22.40;73.10
4209;DHT22;36320;48.860;2.380;2022-08-19T04:00:08;22.50;73.10
4209;DHT22;36320;48.860;2.380;2022-08-19T04:02:34;22.50;73.00
4209;DHT22;36320;48.860;2.380;2022-08-19T04:05:00;22.70;72.80
4209;DHT22;36320;48.860;2.380;2022-08-19T04:07:26;22.80;72.70
4209;DHT22;36320;48.860;2.380;2022-08-19T04:09:52;22.90;72.30
4209;DHT22;36320;48.860;2.380;2022-08-19T04:12:19;22.90;72.10
4209;DHT22;36320;48.860;2.380;2022-08-19T04:14:45;22.70;72.60
4209;DHT22;36320;48.860;2.380;2022-08-19T04:17:12;22.70;72.60
4209;DHT22;36320;48.860;2.380;2022-08-19T04:19:39;22.70;72.50
4209;DHT22;36320;48.860;2.380;2022-08-19T04:22:07;22.80;72.40
4209;DHT22;36320;48.860;2.380;2022-08-19T04:24:34;23.00;72.10
4209;DHT22;36320;48.860;2.380;2022-08-19T04:27:01;22.90;72.00
4209;DHT22;36320;48.860;2.380;2022-08-19T04:29:28;22.90;72.00
4209;DHT22;36320;48.860;2.380;2022-08-19T04:31:56;22.90;72.40
4209;DHT22;36320;48.860;2.380;2022-08-19T04:34:24;22.80;72.70
4209;DHT22;36320;48.860;2.380;2022-08-19T04:36:51;22.70;72.90
4209;DHT22;36320;48.860;2.380;2022-08-19T04:39:24;22.70;73.10
4209;DHT22;36320;48.860;2.380;2022-08-19T04:42:13;22.80;73.10
4209;DHT22;36320;48.860;2.380;2022-08-19T04:44:57;22.90;73.00
4209;DHT22;36320;48.860;2.380;2022-08-19T04:47:24;22.90;72.60
4209;DHT22;36320;48.860;2.380;2022-08-19T04:49:49;22.90;72.40
4209;DHT22;36320;48.860;2.380;2022-08-19T04:52:15;23.00;72.30
4209;DHT22;36320;48.860;2.380;2022-08-19T04:54:41;22.90;72.30
4209;DHT22;36320;48.860;2.380;2022-08-19T04:57:08;22.90;72.60
4209;DHT22;36320;48.860;2.380;2022-08-19T04:59:37;22.90;72.50
4209;DHT22;36320;48.860;2.380;2022-08-19T05:02:04;22.80;72.60
4209;DHT22;36320;48.860;2.380;2022-08-19T05:04:31;22.90;72.90
4209;DHT22;36320;48.860;2.380;2022-08-19T05:06:58;23.00;72.90
4209;DHT22;36320;48.860;2.380;2022-08-19T05:09:23;23.00;72.70
4209;DHT22;36320;48.860;2.380;2022-08-19T05:11:49;23.00;72.80
4209;DHT22;36320;48.860;2.380;2022-08-19T05:14:18;23.00;72.90
4209;DHT22;36320;48.860;2.380;2022-08-19T05:16:47;22.90;73.10
4209;DHT22;36320;48.860;2.380;2022-08-19T05:19:12;22.90;73.20
4209;DHT22;36320;48.860;2.380;2022-08-19T05:21:58;22.80;73.30
4209;DHT22;36320;48.860;2.380;2022-08-19T05:24:43;22.80;73.20
4209;DHT22;36320;48.860;2.380;2022-08-19T05:27:08;22.90;72.90
4209;DHT22;36320;48.860;2.380;2022-08-19T05:29:35;23.10;72.50
4209;DHT22;36320;48.860;2.380;2022-08-19T05:32:03;23.20;72.30
4209;DHT22;36320;48.860;2.380;2022-08-19T05:34:31;23.10;72.20
4209;DHT22;36320;48.860;2.380;2022-08-19T05:37:00;23.00;72.30
4209;DHT22;36320;48.860;2.380;2022-08-19T05:39:30;23.00;72.50
4209;DHT22;36320;48.860;2.380;2022-08-19T05:41:58;22.90;72.70
4209;DHT22;36320;48.860;2.380;2022-08-19T05:44:27;22.80;72.80
4209;DHT22;36320;48.860;2.380;2022-08-19T05:46:56;22.90;73.00
4209;DHT22;36320;48.860;2.380;2022-08-19T05:49:22;22.70;72.90
4209;DHT22;36320;48.860;2.380;2022-08-19T05:51:49;22.80;73.10
4209;DHT22;36320;48.860;2.380;2022-08-19T05:54:15;22.70;73.50
4209;DHT22;36320;48.860;2.380;2022-08-19T05:56:42;23.00;73.40
4209;DHT22;36320;48.860;2.380;2022-08-19T05:59:09;23.00;73.00
4209;DHT22;36320;48.860;2.380;2022-08-19T06:01:42;23.10;72.90
4209;DHT22;36320;48.860;2.380;2022-08-19T06:04:08;23.20;72.70
4209;DHT22;36320;48.860;2.380;2022-08-19T06:06:35;23.00;73.20
4209;DHT22;36320;48.860;2.380;2022-08-19T06:09:03;23.20;73.20
4209;DHT22;36320;48.860;2.380;2022-08-19T06:11:51;23.30;73.20
4209;DHT22;36320;48.860;2.380;2022-08-19T06:14:22;23.20;73.10
4209;DHT22;36320;48.860;2.380;2022-08-19T06:16:48;23.10;73.10
4209;DHT22;36320;48.860;2.380;2022-08-19T06:19:17;23.00;73.40
4209;DHT22;36320;48.860;2.380;2022-08-19T06:21:46;23.00;73.30
4209;DHT22;36320;48.860;2.380;2022-08-19T06:24:17;22.80;73.70
4209;DHT22;36320;48.860;2.380;2022-08-19T06:26:45;22.80;74.20
4209;DHT22;36320;48.860;2.380;2022-08-19T06:29:13;22.80;74.40
4209;DHT22;36320;48.860;2.380;2022-08-19T06:31:44;22.70;74.90
4209;DHT22;36320;48.860;2.380;2022-08-19T06:34:10;22.70;74.80
4209;DHT22;36320;48.860;2.380;2022-08-19T06:36:43;23.00;74.70
4209;DHT22;36320;48.860;2.380;2022-08-19T06:39:12;22.90;74.50
4209;DHT22;36320;48.860;2.380;2022-08-19T06:41:42;22.90;75.30
4209;DHT22;36320;48.860;2.380;2022-08-19T06:44:09;23.10;74.50
4209;DHT22;36320;48.860;2.380;2022-08-19T06:46:36;23.20;74.20
4209;DHT22;36320;48.860;2.380;2022-08-19T06:49:03;23.30;74.00
4209;DHT22;36320;48.860;2.380;2022-08-19T06:51:28;23.40;73.70
4209;DHT22;36320;48.860;2.380;2022-08-19T06:53:55;23.60;73.40
4209;DHT22;36320;48.860;2.380;2022-08-19T06:56:24;23.40;73.40
4209;DHT22;36320;48.860;2.380;2022-08-19T06:58:51;23.50;73.60
4209;DHT22;36320;48.860;2.380;2022-08-19T07:01:19;23.60;73.20
4209;DHT22;36320;48.860;2.380;2022-08-19T07:03:46;23.60;73.10
4209;DHT22;36320;48.860;2.380;2022-08-19T07:06:14;23.60;72.80
4209;DHT22;36320;48.860;2.380;2022-08-19T07:08:46;23.70;73.00
4209;DHT22;36320;48.860;2.380;2022-08-19T07:11:15;23.60;73.00
4209;DHT22;36320;48.860;2.380;2022-08-19T07:13:43;23.70;72.80
4209;DHT22;36320;48.860;2.380;2022-08-19T07:16:15;23.90;72.80
4209;DHT22;36320;48.860;2.380;2022-08-19T07:18:41;24.00;72.40
4209;DHT22;36320;48.860;2.380;2022-08-19T07:21:13;23.90;72.20
4209;DHT22;36320;48.860;2.380;2022-08-19T07:23:41;23.80;72.20
4209;DHT22;36320;48.860;2.380;2022-08-19T07:26:22;23.70;72.60
4209;DHT22;36320;48.860;2.380;2022-08-19T07:28:48;23.60;72.70
4209;DHT22;36320;48.860;2.380;2022-08-19T07:31:17;23.40;73.20
4209;DHT22;36320;48.860;2.380;2022-08-19T07:33:44;23.30;73.60
4209;DHT22;36320;48.860;2.380;2022-08-19T07:36:12;23.40;73.40
4209;DHT22;36320;48.860;2.380;2022-08-19T07:38:40;23.60;73.20
4209;DHT22;36320;48.860;2.380;2022-08-19T07:41:08;23.60;73.20
4209;DHT22;36320;48.860;2.380;2022-08-19T07:43:34;23.70;73.10
4209;DHT22;36320;48.860;2.380;2022-08-19T07:46:00;23.60;73.00
4209;DHT22;36320;48.860;2.380;2022-08-19T07:48:27;23.60;73.10
4209;DHT22;36320;48.860;2.380;2022-08-19T07:50:58;23.60;73.10
4209;DHT22;36320;48.860;2.380;2022-08-19T07:53:28;23.70;73.10
4209;DHT22;36320;48.860;2.380;2022-08-19T07:55:54;23.80;72.80
4209;DHT22;36320;48.860;2.380;2022-08-19T07:58:22;23.60;72.80
4209;DHT22;36320;48.860;2.380;2022-08-19T08:00:50;23.50;73.40
4209;DHT22;36320;48.860;2.380;2022-08-19T08:03:19;23.50;73.60
4209;DHT22;36320;48.860;2.380;2022-08-19T08:05:46;23.50;73.70
4209;DHT22;36320;48.860;2.380;2022-08-19T08:08:30;23.70;73.70
4209;DHT22;36320;48.860;2.380;2022-08-19T08:11:03;23.80;73.50
4209;DHT22;36320;48.860;2.380;2022-08-19T08:13:29;23.90;73.20
4209;DHT22;36320;48.860;2.380;2022-08-19T08:15:56;24.00;73.20
4209;DHT22;36320;48.860;2.380;2022-08-19T08:18:24;24.00;72.90
4209;DHT22;36320;48.860;2.380;2022-08-19T08:20:50;24.10;72.70
4209;DHT22;36320;48.860;2.380;2022-08-19T08:23:15;24.00;72.90
4209;DHT22;36320;48.860;2.380;2022-08-19T08:25:48;24.00;72.80
4209;DHT22;36320;48.860;2.380;2022-08-19T08:28:15;24.20;72.50
4209;DHT22;36320;48.860;2.380;2022-08-19T08:30:41;24.30;72.10
4209;DHT22;36320;48.860;2.380;2022-08-19T08:33:09;24.50;71.90
4209;DHT22;36320;48.860;2.380;2022-08-19T08:35:35;24.50;71.60
4209;DHT22;36320;48.860;2.380;2022-08-19T08:38:01;24.30;71.60
4209;DHT22;36320;48.860;2.380;2022-08-19T08:40:34;24.00;72.00
4209;DHT22;36320;48.860;2.380;2022-08-19T08:43:23;24.00;72.30
4209;DHT22;36320;48.860;2.380;2022-08-19T08:46:12;24.10;72.40
4209;DHT22;36320;48.860;2.380;2022-08-19T08:48:52;24.10;72.20
4209;DHT22;36320;48.860;2.380;2022-08-19T08:51:33;24.10;72.20
4209;DHT22;36320;48.860;2.380;2022-08-19T08:54:01;24.30;72.00
4209;DHT22;36320;48.860;2.380;2022-08-19T08:56:29;24.70;71.30
4209;DHT22;36320;48.860;2.380;2022-08-19T08:59:05;24.70;71.00
4209;DHT22;36320;48.860;2.380;2022-08-19T09:01:34;24.80;70.80
4209;DHT22;36320;48.860;2.380;2022-08-19T09:03:59;24.70;70.30
4209;DHT22;36320;48.860;2.380;2022-08-19T09:06:55;24.80;70.60
4209;DHT22;36320;48.860;2.380;2022-08-19T09:09:35;24.90;70.20
4209;DHT22;36320;48.860;2.380;2022-08-19T09:15:10;25.20;69.70
4209;DHT22;36320;48.860;2.380;2022-08-19T09:17:37;25.20;69.00
4209;DHT22;36320;48.860;2.380;2022-08-19T09:20:23;25.10;69.40
4209;DHT22;36320;48.860;2.380;2022-08-19T09:22:49;25.20;69.10
4209;DHT22;36320;48.860;2.380;2022-08-19T09:25:19;25.10;69.20
4209;DHT22;36320;48.860;2.380;2022-08-19T09:27:48;25.20;69.00
4209;DHT22;36320;48.860;2.380;2022-08-19T09:30:19;25.30;68.50
4209;DHT22;36320;48.860;2.380;2022-08-19T09:32:46;25.60;68.50
4209;DHT22;36320;48.860;2.380;2022-08-19T09:35:13;25.80;67.70
4209;DHT22;36320;48.860;2.380;2022-08-19T09:37:39;25.90;67.60
4209;DHT22;36320;48.860;2.380;2022-08-19T09:40:05;25.80;67.10
4209;DHT22;36320;48.860;2.380;2022-08-19T09:42:32;25.80;67.10
4209;DHT22;36320;48.860;2.380;2022-08-19T09:44:59;25.80;67.40
4209;DHT22;36320;48.860;2.380;2022-08-19T09:47:25;26.10;66.80
4209;DHT22;36320;48.860;2.380;2022-08-19T09:49:53;26.00;66.20
4209;DHT22;36320;48.860;2.380;2022-08-19T09:52:20;26.20;66.20
4209;DHT22;36320;48.860;2.380;2022-08-19T09:54:45;26.40;65.70
4209;DHT22;36320;48.860;2.380;2022-08-19T09:57:11;26.20;65.50
4209;DHT22;36320;48.860;2.380;2022-08-19T09:59:39;25.90;66.10
4209;DHT22;36320;48.860;2.380;2022-08-19T10:02:05;25.80;66.40
4209;DHT22;36320;48.860;2.380;2022-08-19T10:04:31;25.60;66.70
4209;DHT22;36320;48.860;2.380;2022-08-19T10:07:17;25.80;66.80
4209;DHT22;36320;48.860;2.380;2022-08-19T10:09:43;25.80;66.50
4209;DHT22;36320;48.860;2.380;2022-08-19T10:12:08;25.60;66.80
4209;DHT22;36320;48.860;2.380;2022-08-19T10:14:34;25.40;67.10
4209;DHT22;36320;48.860;2.380;2022-08-19T10:17:02;25.60;67.30
4209;DHT22;36320;48.860;2.380;2022-08-19T10:19:28;25.80;66.80
4209;DHT22;36320;48.860;2.380;2022-08-19T10:22:03;25.60;66.80
4209;DHT22;36320;48.860;2.380;2022-08-19T10:24:36;25.70;66.90
4209;DHT22;36320;48.860;2.380;2022-08-19T10:27:02;25.80;66.80
4209;DHT22;36320;48.860;2.380;2022-08-19T10:29:30;25.80;66.80
4209;DHT22;36320;48.860;2.380;2022-08-19T10:31:57;25.90;67.50
4209;DHT22;36320;48.860;2.380;2022-08-19T10:34:25;26.00;66.60
4209;DHT22;36320;48.860;2.380;2022-08-19T10:36:51;26.40;66.00
4209;DHT22;36320;48.860;2.380;2022-08-19T10:39:17;26.60;66.10
4209;DHT22;36320;48.860;2.380;2022-08-19T10:41:42;26.60;65.30
4209;DHT22;36320;48.860;2.380;2022-08-19T10:44:11;27.00;64.90
4209;DHT22;36320;48.860;2.380;2022-08-19T10:46:41;27.60;63.80
4209;DHT22;36320;48.860;2.380;2022-08-19T10:49:11;27.70;62.60
4209;DHT22;36320;48.860;2.380;2022-08-19T10:51:38;27.70;62.00
4209;DHT22;36320;48.860;2.380;2022-08-19T10:54:22;27.30;62.50
4209;DHT22;36320;48.860;2.380;2022-08-19T10:56:48;27.10;62.80
4209;DHT22;36320;48.860;2.380;2022-08-19T11:01:46;26.40;64.30
4209;DHT22;36320;48.860;2.380;2022-08-19T11:04:13;26.40;64.40
4209;DHT22;36320;48.860;2.380;2022-08-19T11:06:41;26.30;64.60
4209;DHT22;36320;48.860;2.380;2022-08-19T11:09:09;26.30;64.50
4209;DHT22;36320;48.860;2.380;2022-08-19T11:11:37;26.40;64.90
4209;DHT22;36320;48.860;2.380;2022-08-19T11:14:07;26.60;64.10
4209;DHT22;36320;48.860;2.380;2022-08-19T11:16:34;26.70;64.30
4209;DHT22;36320;48.860;2.380;2022-08-19T11:18:59;26.60;64.10
4209;DHT22;36320;48.860;2.380;2022-08-19T11:21:31;26.70;63.90
4209;DHT22;36320;48.860;2.380;2022-08-19T11:24:00;26.50;64.20
4209;DHT22;36320;48.860;2.380;2022-08-19T11:26:28;26.40;64.80
4209;DHT22;36320;48.860;2.380;2022-08-19T11:28:54;26.40;64.60
4209;DHT22;36320;48.860;2.380;2022-08-19T11:31:23;26.50;64.30
4209;DHT22;36320;48.860;2.380;2022-08-19T11:33:49;26.30;64.60
4209;DHT22;36320;48.860;2.380;2022-08-19T11:36:20;26.20;65.00
4209;DHT22;36320;48.860;2.380;2022-08-19T11:38:48;26.00;65.30
4209;DHT22;36320;48.860;2.380;2022-08-19T11:41:15;26.00;65.50
4209;DHT22;36320;48.860;2.380;2022-08-19T11:43:41;26.10;65.40
4209;DHT22;36320;48.860;2.380;2022-08-19T11:46:09;26.10;65.40
4209;DHT22;36320;48.860;2.380;2022-08-19T11:48:36;26.10;65.50
4209;DHT22;36320;48.860;2.380;2022-08-19T11:51:07;26.10;65.60
4209;DHT22;36320;48.860;2.380;2022-08-19T11:53:35;26.10;65.90
4209;DHT22;36320;48.860;2.380;2022-08-19T11:56:02;26.00;65.90
4209;DHT22;36320;48.860;2.380;2022-08-19T11:58:28;26.00;65.90
4209;DHT22;36320;48.860;2.380;2022-08-19T12:00:55;26.00;65.90
4209;DHT22;36320;48.860;2.380;2022-08-19T12:03:21;26.10;66.60
4209;DHT22;36320;48.860;2.380;2022-08-19T12:05:47;26.20;67.30
4209;DHT22;36320;48.860;2.380;2022-08-19T12:08:13;26.20;67.90
4209;DHT22;36320;48.860;2.380;2022-08-19T12:10:40;26.20;68.60
4209;DHT22;36320;48.860;2.380;2022-08-19T12:13:07;26.00;69.20
4209;DHT22;36320;48.860;2.380;2022-08-19T12:15:39;26.40;69.60
4209;DHT22;36320;48.860;2.380;2022-08-19T12:18:08;26.50;69.60
4209;DHT22;36320;48.860;2.380;2022-08-19T12:20:40;26.40;69.70
4209;DHT22;36320;48.860;2.380;2022-08-19T12:23:07;26.30;69.60
4209;DHT22;36320;48.860;2.380;2022-08-19T12:25:35;26.40;69.60
4209;DHT22;36320;48.860;2.380;2022-08-19T12:28:01;26.30;69.40
4209;DHT22;36320;48.860;2.380;2022-08-19T12:30:27;26.10;69.70
4209;DHT22;36320;48.860;2.380;2022-08-19T12:32:54;26.00;70.10
4209;DHT22;36320;48.860;2.380;2022-08-19T12:35:23;26.10;70.00
4209;DHT22;36320;48.860;2.380;2022-08-19T12:37:49;26.20;70.00
4209;DHT22;36320;48.860;2.380;2022-08-19T12:40:15;26.30;70.00
4209;DHT22;36320;48.860;2.380;2022-08-19T12:42:43;26.30;70.10
4209;DHT22;36320;48.860;2.380;2022-08-19T12:45:10;26.40;70.20
4209;DHT22;36320;48.860;2.380;2022-08-19T12:47:36;26.50;70.20
4209;DHT22;36320;48.860;2.380;2022-08-19T12:50:02;26.50;70.20
4209;DHT22;36320;48.860;2.380;2022-08-19T12:52:28;26.50;70.30
4209;DHT22;36320;48.860;2.380;2022-08-19T12:54:55;26.50;70.10
4209;DHT22;36320;48.860;2.380;2022-08-19T12:57:27;26.60;70.00
4209;DHT22;36320;48.860;2.380;2022-08-19T12:59:53;26.80;69.50
4209;DHT22;36320;48.860;2.380;2022-08-19T13:02:19;27.10;69.20
4209;DHT22;36320;48.860;2.380;2022-08-19T13:04:45;27.30;68.50
4209;DHT22;36320;48.860;2.380;2022-08-19T13:07:11;27.50;67.70
4209;DHT22;36320;48.860;2.380;2022-08-19T13:09:37;27.70;67.00
4209;DHT22;36320;48.860;2.380;2022-08-19T13:12:05;28.00;66.20
4209;DHT22;36320;48.860;2.380;2022-08-19T13:14:34;28.20;65.30
4209;DHT22;36320;48.860;2.380;2022-08-19T13:17:00;28.30;64.50
4209;DHT22;36320;48.860;2.380;2022-08-19T13:19:26;28.50;63.80
4209;DHT22;36320;48.860;2.380;2022-08-19T13:21:52;28.60;62.90
4209;DHT22;36320;48.860;2.380;2022-08-19T13:24:20;28.50;63.00
4209;DHT22;36320;48.860;2.380;2022-08-19T13:26:47;28.30;63.10
4209;DHT22;36320;48.860;2.380;2022-08-19T13:29:13;28.20;62.70
4209;DHT22;36320;48.860;2.380;2022-08-19T13:31:58;28.50;61.80
4209;DHT22;36320;48.860;2.380;2022-08-19T13:34:42;28.80;60.90
4209;DHT22;36320;48.860;2.380;2022-08-19T13:37:07;28.80;60.40
4209;DHT22;36320;48.860;2.380;2022-08-19T13:39:34;28.90;60.00
4209;DHT22;36320;48.860;2.380;2022-08-19T13:42:01;28.70;59.60
4209;DHT22;36320;48.860;2.380;2022-08-19T13:44:28;29.20;59.30
4209;DHT22;36320;48.860;2.380;2022-08-19T13:47:02;29.60;58.10
4209;DHT22;36320;48.860;2.380;2022-08-19T13:49:32;29.60;57.70
4209;DHT22;36320;48.860;2.380;2022-08-19T13:51:58;29.80;57.40
4209;DHT22;36320;48.860;2.380;2022-08-19T13:54:24;30.30;56.60
4209;DHT22;36320;48.860;2.380;2022-08-19T13:56:49;30.70;55.70
4209;DHT22;36320;48.860;2.380;2022-08-19T13:59:15;31.20;54.90
4209;DHT22;36320;48.860;2.380;2022-08-19T14:01:41;31.10;53.50
4209;DHT22;36320;48.860;2.380;2022-08-19T14:04:08;30.80;54.10
4209;DHT22;36320;48.860;2.380;2022-08-19T14:06:34;30.60;54.50
4209;DHT22;36320;48.860;2.380;2022-08-19T14:08:59;30.10;54.60
4209;DHT22;36320;48.860;2.380;2022-08-19T14:11:27;30.10;54.80
4209;DHT22;36320;48.860;2.380;2022-08-19T14:13:53;30.30;54.70
4209;DHT22;36320;48.860;2.380;2022-08-19T14:16:19;30.00;54.60
4209;DHT22;36320;48.860;2.380;2022-08-19T14:18:46;30.10;54.60
4209;DHT22;36320;48.860;2.380;2022-08-19T14:21:17;30.00;54.70
4209;DHT22;36320;48.860;2.380;2022-08-19T14:23:43;29.90;54.60
4209;DHT22;36320;48.860;2.380;2022-08-19T14:26:12;29.70;55.00
4209;DHT22;36320;48.860;2.380;2022-08-19T14:28:39;29.30;55.50
4209;DHT22;36320;48.860;2.380;2022-08-19T14:31:11;29.10;55.90
4209;DHT22;36320;48.860;2.380;2022-08-19T14:33:37;29.40;55.90
4209;DHT22;36320;48.860;2.380;2022-08-19T14:36:04;29.90;55.20
4209;DHT22;36320;48.860;2.380;2022-08-19T14:38:29;30.30;54.20
4209;DHT22;36320;48.860;2.380;2022-08-19T14:41:16;30.70;53.40
4209;DHT22;36320;48.860;2.380;2022-08-19T14:43:44;30.80;53.00
4209;DHT22;36320;48.860;2.380;2022-08-19T14:46:14;30.90;52.20
4209;DHT22;36320;48.860;2.380;2022-08-19T14:48:41;30.60;52.50
4209;DHT22;36320;48.860;2.380;2022-08-19T14:51:07;30.80;52.30
4209;DHT22;36320;48.860;2.380;2022-08-19T14:53:33;31.00;52.00
4209;DHT22;36320;48.860;2.380;2022-08-19T14:56:00;30.70;52.20
4209;DHT22;36320;48.860;2.380;2022-08-19T14:58:27;30.10;52.90
4209;DHT22;36320;48.860;2.380;2022-08-19T15:00:53;29.50;53.80
4209;DHT22;36320;48.860;2.380;2022-08-19T15:03:19;29.30;54.60
4209;DHT22;36320;48.860;2.380;2022-08-19T15:05:44;28.90;55.00
4209;DHT22;36320;48.860;2.380;2022-08-19T15:08:10;28.30;55.80
4209;DHT22;36320;48.860;2.380;2022-08-19T15:10:38;28.00;56.60
4209;DHT22;36320;48.860;2.380;2022-08-19T15:13:04;27.90;57.10
4209;DHT22;36320;48.860;2.380;2022-08-19T15:15:29;27.80;57.40
4209;DHT22;36320;48.860;2.380;2022-08-19T15:17:55;27.70;57.60
4209;DHT22;36320;48.860;2.380;2022-08-19T15:20:27;27.60;57.80
4209;DHT22;36320;48.860;2.380;2022-08-19T15:22:53;27.60;58.10
4209;DHT22;36320;48.860;2.380;2022-08-19T15:25:19;27.60;58.10
4209;DHT22;36320;48.860;2.380;2022-08-19T15:27:46;27.70;58.20
4209;DHT22;36320;48.860;2.380;2022-08-19T15:30:17;27.70;58.40
4209;DHT22;36320;48.860;2.380;2022-08-19T15:32:43;28.20;58.50
4209;DHT22;36320;48.860;2.380;2022-08-19T15:35:09;27.80;58.10
4209;DHT22;36320;48.860;2.380;2022-08-19T15:37:34;28.10;58.00
4209;DHT22;36320;48.860;2.380;2022-08-19T15:40:00;28.00;57.80
4209;DHT22;36320;48.860;2.380;2022-08-19T15:42:26;27.90;58.00
4209;DHT22;36320;48.860;2.380;2022-08-19T15:44:52;27.70;58.60
4209;DHT22;36320;48.860;2.380;2022-08-19T15:47:18;28.10;59.10
4209;DHT22;36320;48.860;2.380;2022-08-19T15:49:45;28.50;58.30
4209;DHT22;36320;48.860;2.380;2022-08-19T15:52:10;28.60;57.20
4209;DHT22;36320;48.860;2.380;2022-08-19T15:54:36;28.40;57.20
4209;DHT22;36320;48.860;2.380;2022-08-19T15:57:02;28.30;57.50